Time;durP1;ratioP1;P1;durP2;ratioP2;P2;SDS_P1;SDS_P2;PMS_P1;PMS_P2;Temp;Humidity;BMP_temperature;BMP_pressure;BME280_temperature;BME280_humidity;BME280_pressure;Samples;Min_cycle;Max_cycle;Signal;HPM_P1;HPM_P2
2024/02/24 00:00:17;;;;;;;;;;;17.60;67.50;;;;;;5037842;28;1300;-68
2024/02/24 00:02:42;;;;;;;;;;;17.60;67.60;;;;;;5037833;28;1330;-68
2024/02/24 00:05:08;;;;;;;;;;;17.60;67.50;;;;;;5039881;28;1902;-68
2024/02/24 00:07:33;;;;;;;;;;;17.60;67.60;;;;;;5042739;28;1299;-68
2024/02/24 00:09:59;;;;;;;;;;;17.60;67.60;;;;;;5040286;28;1386;-68
2024/02/24 00:12:24;;;;;;;;;;;17.60;68.40;;;;;;5038811;28;1540;-68
2024/02/24 00:14:50;;;;;;;;;;;17.60;67.60;;;;;;5037177;28;1427;-68
2024/02/24 00:17:16;;;;;;;;;;;17.60;67.60;;;;;;5037633;28;1554;-67
2024/02/24 00:19:41;;;;;;;;;;;17.60;67.60;;;;;;5045995;28;1565;-67
2024/02/24 00:22:06;;;;;;;;;;;17.60;67.60;;;;;;5039041;28;1555;-67
2024/02/24 00:24:32;;;;;;;;;;;17.60;67.60;;;;;;5038203;28;1906;-67
2024/02/24 00:26:57;;;;;;;;;;;17.60;67.60;;;;;;5039987;28;1085;-66
2024/02/24 00:29:23;;;;;;;;;;;17.60;67.70;;;;;;5038386;28;1396;-66
2024/02/24 00:31:48;;;;;;;;;;;17.60;67.60;;;;;;5037703;28;1288;-67
2024/02/24 00:34:14;;;;;;;;;;;17.60;67.60;;;;;;5039193;28;1086;-68
2024/02/24 00:36:40;;;;;;;;;;;17.60;67.70;;;;;;5038329;28;1304;-64
2024/02/24 00:39:06;;;;;;;;;;;17.60;67.70;;;;;;5041149;28;1447;-69
2024/02/24 00:41:31;;;;;;;;;;;17.60;67.70;;;;;;5044189;28;1548;-65
2024/02/24 00:43:57;;;;;;;;;;;17.60;67.70;;;;;;5041355;28;1239;-66
2024/02/24 00:46:22;;;;;;;;;;;17.60;67.70;;;;;;5037264;28;1910;-67
2024/02/24 00:48:47;;;;;;;;;;;17.60;67.70;;;;;;5038956;28;1194;-66
2024/02/24 00:51:13;;;;;;;;;;;17.60;67.70;;;;;;5042291;28;1335;-66
2024/02/24 00:53:38;;;;;;;;;;;17.50;67.70;;;;;;5033514;28;1053;-66
2024/02/24 00:56:04;;;;;;;;;;;17.60;67.70;;;;;;5041778;28;864;-69
2024/02/24 00:58:30;;;;;;;;;;;17.50;67.60;;;;;;5052711;28;998;-66
2024/02/24 01:00:55;;;;;;;;;;;17.60;67.70;;;;;;5047508;28;1315;-66
2024/02/24 01:03:21;;;;;;;;;;;17.60;67.70;;;;;;5063416;28;1300;-69
2024/02/24 01:05:46;;;;;;;;;;;17.60;67.70;;;;;;5038777;28;1915;-70
2024/02/24 01:08:12;;;;;;;;;;;17.60;67.70;;;;;;5038311;28;1457;-69
2024/02/24 01:10:37;;;;;;;;;;;17.60;67.80;;;;;;5039400;28;1371;-69
2024/02/24 01:13:03;;;;;;;;;;;17.60;67.70;;;;;;5037043;28;1633;-68
2024/02/24 01:15:28;;;;;;;;;;;17.60;67.70;;;;;;5037876;28;959;-68
2024/02/24 01:17:57;;;;;;;;;;;17.60;67.70;;;;;;5036427;28;1657;-69
2024/02/24 01:20:23;;;;;;;;;;;17.60;67.70;;;;;;5037620;28;1392;-69
2024/02/24 01:22:52;;;;;;;;;;;17.60;67.60;;;;;;5038121;28;1267;-67
2024/02/24 01:25:18;;;;;;;;;;;17.60;67.60;;;;;;5038195;28;1965;-69
2024/02/24 01:27:43;;;;;;;;;;;17.60;67.60;;;;;;5040246;28;1351;-69
2024/02/24 01:30:11;;;;;;;;;;;17.60;67.60;;;;;;5042892;28;1318;-66
2024/02/24 01:32:37;;;;;;;;;;;17.60;67.60;;;;;;5049622;28;1675;-70
2024/02/24 01:35:02;;;;;;;;;;;17.60;67.60;;;;;;5037785;28;1501;-69
2024/02/24 01:37:28;;;;;;;;;;;17.60;67.60;;;;;;5039504;28;859;-68
2024/02/24 01:39:53;;;;;;;;;;;17.60;67.60;;;;;;5039328;28;1596;-67
2024/02/24 01:42:19;;;;;;;;;;;17.60;67.60;;;;;;5040418;28;871;-68
2024/02/24 01:44:45;;;;;;;;;;;17.60;67.50;;;;;;5041578;28;1971;-69
2024/02/24 01:47:10;;;;;;;;;;;17.60;67.50;;;;;;5041642;28;1125;-68
2024/02/24 01:49:36;;;;;;;;;;;17.60;67.50;;;;;;5040350;28;1153;-67
2024/02/24 01:52:01;;;;;;;;;;;17.60;67.50;;;;;;5041342;28;1308;-67
2024/02/24 01:54:27;;;;;;;;;;;17.60;67.50;;;;;;5041060;28;1245;-66
2024/02/24 01:56:52;;;;;;;;;;;17.60;67.50;;;;;;5042712;28;1387;-68
2024/02/24 01:59:18;;;;;;;;;;;17.60;67.50;;;;;;5040518;28;1372;-66
2024/02/24 02:01:44;;;;;;;;;;;17.60;67.50;;;;;;5041713;28;1509;-68
2024/02/24 02:04:09;;;;;;;;;;;17.60;67.50;;;;;;5048384;28;1657;-68
2024/02/24 02:06:37;;;;;;;;;;;17.60;67.50;;;;;;5040192;28;1902;-68
2024/02/24 02:09:03;;;;;;;;;;;17.60;67.50;;;;;;5039711;28;1541;-67
2024/02/24 02:11:28;;;;;;;;;;;17.60;67.50;;;;;;5037364;28;1507;-66
2024/02/24 02:13:54;;;;;;;;;;;17.60;67.50;;;;;;5043445;28;1480;-66
2024/02/24 02:16:19;;;;;;;;;;;17.60;67.50;;;;;;5039164;28;1807;-66
2024/02/24 02:18:45;;;;;;;;;;;17.60;67.50;;;;;;5040811;28;1448;-70
2024/02/24 02:21:10;;;;;;;;;;;17.60;67.50;;;;;;5040972;28;1272;-69
2024/02/24 02:23:36;;;;;;;;;;;17.60;68.30;;;;;;5039586;28;1290;-69
2024/02/24 02:26:02;;;;;;;;;;;17.60;67.50;;;;;;5041033;28;1898;-69
2024/02/24 02:28:28;;;;;;;;;;;17.60;67.50;;;;;;5039932;28;1628;-69
2024/02/24 02:30:53;;;;;;;;;;;17.60;67.50;;;;;;5042657;28;1621;-69
2024/02/24 02:33:19;;;;;;;;;;;17.60;67.50;;;;;;5042780;28;1348;-67
2024/02/24 02:35:44;;;;;;;;;;;17.60;67.50;;;;;;5041896;28;1255;-67
2024/02/24 02:38:10;;;;;;;;;;;17.60;67.50;;;;;;5042643;28;1200;-67
2024/02/24 02:40:36;;;;;;;;;;;17.60;67.50;;;;;;5039425;28;1518;-68
2024/02/24 02:43:01;;;;;;;;;;;17.60;67.50;;;;;;5037666;28;1477;-67
2024/02/24 02:45:27;;;;;;;;;;;17.60;67.50;;;;;;5039994;28;1965;-67
2024/02/24 02:47:52;;;;;;;;;;;17.60;68.20;;;;;;5038834;28;1295;-67
2024/02/24 02:50:18;;;;;;;;;;;17.60;67.50;;;;;;5048488;28;1341;-67
2024/02/24 02:52:43;;;;;;;;;;;17.60;67.50;;;;;;5042351;28;1567;-67
2024/02/24 02:55:09;;;;;;;;;;;17.60;67.50;;;;;;5047409;28;1434;-68
2024/02/24 02:57:34;;;;;;;;;;;17.60;67.50;;;;;;5073086;28;1554;-68
2024/02/24 02:59:59;;;;;;;;;;;17.60;67.50;;;;;;5039631;28;1512;-68
2024/02/24 03:02:25;;;;;;;;;;;17.60;67.50;;;;;;5038830;28;1164;-68
2024/02/24 03:04:50;;;;;;;;;;;17.60;67.50;;;;;;5039888;28;1906;-68
2024/02/24 03:07:16;;;;;;;;;;;17.60;67.50;;;;;;5037351;28;1348;-67
2024/02/24 03:09:47;;;;;;;;;;;17.60;67.50;;;;;;5040500;28;1349;-67
2024/02/24 03:12:16;;;;;;;;;;;17.60;67.60;;;;;;5040063;28;1257;-67
2024/02/24 03:14:41;;;;;;;;;;;17.60;67.50;;;;;;5044267;28;1426;-66
2024/02/24 03:17:07;;;;;;;;;;;17.60;67.50;;;;;;5044839;28;1407;-66
2024/02/24 03:19:32;;;;;;;;;;;17.60;67.50;;;;;;5041368;28;1325;-68
2024/02/24 03:21:58;;;;;;;;;;;17.60;67.50;;;;;;5043508;28;1276;-68
2024/02/24 03:24:23;;;;;;;;;;;17.60;67.50;;;;;;5042241;28;1955;-67
2024/02/24 03:26:49;;;;;;;;;;;17.60;67.50;;;;;;5039876;28;1393;-68
2024/02/24 03:29:14;;;;;;;;;;;17.60;67.50;;;;;;5042340;28;1472;-68
2024/02/24 03:31:40;;;;;;;;;;;17.60;67.40;;;;;;5039290;28;1486;-68
2024/02/24 03:34:07;;;;;;;;;;;17.60;67.50;;;;;;5041360;28;1449;-68
2024/02/24 03:36:32;;;;;;;;;;;17.60;67.50;;;;;;5039687;28;1614;-68
2024/02/24 03:38:58;;;;;;;;;;;17.60;67.40;;;;;;5039195;28;1441;-68
2024/02/24 03:41:25;;;;;;;;;;;17.60;67.40;;;;;;5038287;28;1282;-68
2024/02/24 03:43:50;;;;;;;;;;;17.60;67.40;;;;;;5038965;28;1545;-68
2024/02/24 03:46:16;;;;;;;;;;;17.60;67.50;;;;;;5039642;28;1906;-68
2024/02/24 03:48:45;;;;;;;;;;;17.60;67.40;;;;;;5055670;28;1373;-68
2024/02/24 03:51:11;;;;;;;;;;;17.60;67.40;;;;;;5040797;28;1549;-68
2024/02/24 03:53:36;;;;;;;;;;;17.60;67.40;;;;;;5037708;28;1321;-68
2024/02/24 03:56:02;;;;;;;;;;;17.60;67.50;;;;;;5040088;28;1475;-68
2024/02/24 03:58:27;;;;;;;;;;;17.60;67.40;;;;;;5039684;28;953;-67
2024/02/24 04:00:52;;;;;;;;;;;17.60;67.40;;;;;;5043774;28;1300;-66
2024/02/24 04:03:18;;;;;;;;;;;17.60;67.50;;;;;;5045173;28;844;-67
2024/02/24 04:05:44;;;;;;;;;;;17.60;67.40;;;;;;5037429;28;1905;-66
2024/02/24 04:08:09;;;;;;;;;;;17.60;67.40;;;;;;5042711;28;914;-68
2024/02/24 04:10:35;;;;;;;;;;;17.60;67.40;;;;;;5042079;28;1285;-66
2024/02/24 04:13:00;;;;;;;;;;;17.60;67.50;;;;;;5044444;28;879;-66
2024/02/24 04:15:26;;;;;;;;;;;17.60;67.40;;;;;;5042295;28;863;-67
2024/02/24 04:17:54;;;;;;;;;;;17.60;67.40;;;;;;5043286;28;794;-69
2024/02/24 04:20:20;;;;;;;;;;;17.60;67.40;;;;;;5040598;28;1272;-69
2024/02/24 04:22:45;;;;;;;;;;;17.60;67.50;;;;;;5044088;28;1049;-66
2024/02/24 04:25:11;;;;;;;;;;;17.60;67.40;;;;;;5043568;28;1914;-66
2024/02/24 04:27:36;;;;;;;;;;;17.60;67.40;;;;;;5047583;28;1166;-67
2024/02/24 04:30:02;;;;;;;;;;;17.60;67.40;;;;;;5044547;28;1284;-66
2024/02/24 04:32:28;;;;;;;;;;;17.60;67.40;;;;;;5038558;28;903;-66
2024/02/24 04:34:53;;;;;;;;;;;17.60;67.40;;;;;;5042604;28;1045;-69
2024/02/24 04:37:19;;;;;;;;;;;17.60;67.40;;;;;;5041159;28;895;-66
2024/02/24 04:39:44;;;;;;;;;;;17.60;67.50;;;;;;5041550;28;1033;-70
2024/02/24 04:42:10;;;;;;;;;;;17.60;67.40;;;;;;5042466;28;1197;-67
2024/02/24 04:44:35;;;;;;;;;;;17.60;67.40;;;;;;5039545;28;1961;-68
2024/02/24 04:47:00;;;;;;;;;;;17.60;67.40;;;;;;5038660;28;1497;-68
2024/02/24 04:49:26;;;;;;;;;;;17.60;67.40;;;;;;5039813;28;1614;-68
2024/02/24 04:51:51;;;;;;;;;;;17.60;67.40;;;;;;5036659;28;1589;-68
2024/02/24 04:54:17;;;;;;;;;;;17.60;67.40;;;;;;5038116;28;1636;-68
2024/02/24 04:56:43;;;;;;;;;;;17.60;67.40;;;;;;5038312;28;1105;-68
2024/02/24 04:59:08;;;;;;;;;;;17.60;67.40;;;;;;5035269;28;1474;-68
2024/02/24 05:01:34;;;;;;;;;;;17.60;67.40;;;;;;5038716;28;1419;-68
2024/02/24 05:03:59;;;;;;;;;;;17.60;67.50;;;;;;5040689;28;1465;-68
2024/02/24 05:06:25;;;;;;;;;;;17.60;67.50;;;;;;5041549;28;1902;-68
2024/02/24 05:08:50;;;;;;;;;;;17.60;67.50;;;;;;5041189;28;1196;-68
2024/02/24 05:11:15;;;;;;;;;;;17.60;67.50;;;;;;5042403;28;1369;-68
2024/02/24 05:13:41;;;;;;;;;;;17.60;67.40;;;;;;5037387;28;1416;-68
2024/02/24 05:16:10;;;;;;;;;;;17.60;67.40;;;;;;5044429;28;1381;-70
2024/02/24 05:18:36;;;;;;;;;;;17.60;67.30;;;;;;5043732;28;1511;-70
2024/02/24 05:21:01;;;;;;;;;;;17.60;67.20;;;;;;5039452;28;1462;-68
2024/02/24 05:23:27;;;;;;;;;;;17.70;67.20;;;;;;5039861;28;1603;-68
2024/02/24 05:25:52;;;;;;;;;;;17.70;67.20;;;;;;5040611;28;1949;-69
2024/02/24 05:28:18;;;;;;;;;;;17.70;67.10;;;;;;5040784;28;1819;-69
2024/02/24 05:30:43;;;;;;;;;;;17.70;67.00;;;;;;5042369;28;1525;-69
2024/02/24 05:33:09;;;;;;;;;;;17.80;67.00;;;;;;5042294;28;1384;-70
2024/02/24 05:35:35;;;;;;;;;;;17.80;66.90;;;;;;5040274;28;1390;-69
2024/02/24 05:38:00;;;;;;;;;;;17.80;66.80;;;;;;5039396;28;1309;-70
2024/02/24 05:40:26;;;;;;;;;;;17.80;66.70;;;;;;5042795;28;1351;-69
2024/02/24 05:42:51;;;;;;;;;;;17.80;66.60;;;;;;5041013;28;1515;-69
2024/02/24 05:45:17;;;;;;;;;;;17.80;66.50;;;;;;5042962;28;1890;-68
2024/02/24 05:47:42;;;;;;;;;;;17.90;66.50;;;;;;5039804;28;1741;-69
2024/02/24 05:50:08;;;;;;;;;;;17.90;66.40;;;;;;5039649;28;1566;-70
2024/02/24 05:52:34;;;;;;;;;;;17.90;66.40;;;;;;5042038;28;1643;-70
2024/02/24 05:54:59;;;;;;;;;;;17.90;66.30;;;;;;5043212;28;1439;-69
2024/02/24 05:57:24;;;;;;;;;;;17.90;66.30;;;;;;5039340;28;1527;-69
2024/02/24 05:59:50;;;;;;;;;;;18.00;66.20;;;;;;5039705;28;1138;-69
2024/02/24 06:02:16;;;;;;;;;;;17.90;66.20;;;;;;5038130;28;1399;-70
2024/02/24 06:04:42;;;;;;;;;;;18.00;66.10;;;;;;5039975;28;1910;-69
2024/02/24 06:07:08;;;;;;;;;;;18.00;66.10;;;;;;5041356;28;1138;-69
2024/02/24 06:09:33;;;;;;;;;;;18.00;66.00;;;;;;5041319;28;1123;-69
2024/02/24 06:11:59;;;;;;;;;;;18.00;66.00;;;;;;5040061;28;1308;-69
2024/02/24 06:14:24;;;;;;;;;;;18.00;66.00;;;;;;5044456;28;2135;-69
2024/02/24 06:17:02;;;;;;;;;;;18.00;65.90;;;;;;5061371;28;2130;-64
2024/02/24 06:19:28;;;;;;;;;;;18.00;65.90;;;;;;5056471;28;1391;-70
2024/02/24 06:21:54;;;;;;;;;;;18.10;65.90;;;;;;5040673;28;1366;-70
2024/02/24 06:24:19;;;;;;;;;;;18.00;65.90;;;;;;5043276;28;1389;-70
2024/02/24 06:26:45;;;;;;;;;;;18.00;65.80;;;;;;5041825;28;1950;-69
2024/02/24 06:29:11;;;;;;;;;;;18.00;65.80;;;;;;5039481;28;1297;-69
2024/02/24 06:31:37;;;;;;;;;;;18.10;65.90;;;;;;5042016;28;1674;-70
2024/02/24 06:34:03;;;;;;;;;;;18.10;65.80;;;;;;5043362;28;1418;-69
2024/02/24 06:36:29;;;;;;;;;;;18.10;65.90;;;;;;5073361;28;1472;-70
2024/02/24 06:38:54;;;;;;;;;;;18.10;65.80;;;;;;5037673;28;1613;-71
2024/02/24 06:41:23;;;;;;;;;;;18.10;65.80;;;;;;5036992;28;1865;-71
2024/02/24 06:43:49;;;;;;;;;;;18.10;65.80;;;;;;5048360;28;1180;-70
2024/02/24 06:46:15;;;;;;;;;;;18.00;65.70;;;;;;5040276;28;1955;-70
2024/02/24 06:48:40;;;;;;;;;;;18.10;65.80;;;;;;5039967;28;1844;-70
2024/02/24 06:51:06;;;;;;;;;;;18.10;65.80;;;;;;5037258;28;1358;-69
2024/02/24 06:53:31;;;;;;;;;;;18.10;65.80;;;;;;5042029;28;1492;-69
2024/02/24 06:55:57;;;;;;;;;;;18.00;65.80;;;;;;5038754;28;1361;-71
2024/02/24 06:58:22;;;;;;;;;;;18.00;65.70;;;;;;5040901;28;1226;-71
2024/02/24 07:00:48;;;;;;;;;;;18.00;65.80;;;;;;5038554;28;1411;-71
2024/02/24 07:03:14;;;;;;;;;;;18.00;65.80;;;;;;5038972;28;1506;-71
2024/02/24 07:05:41;;;;;;;;;;;18.00;65.80;;;;;;5039936;28;1959;-71
2024/02/24 07:08:06;;;;;;;;;;;18.00;65.80;;;;;;5040594;28;1905;-68
2024/02/24 07:10:32;;;;;;;;;;;18.00;65.80;;;;;;5029770;28;1868;-70
2024/02/24 07:13:00;;;;;;;;;;;18.00;65.90;;;;;;5054029;28;1659;-65
2024/02/24 07:15:26;;;;;;;;;;;18.00;65.90;;;;;;5043069;28;1601;-71
2024/02/24 07:17:52;;;;;;;;;;;18.00;65.90;;;;;;5037727;28;1684;-71
2024/02/24 07:20:17;;;;;;;;;;;18.00;66.00;;;;;;5039706;28;1938;-70
2024/02/24 07:22:43;;;;;;;;;;;18.00;66.00;;;;;;5037054;28;1554;-70
2024/02/24 07:25:08;;;;;;;;;;;18.00;66.00;;;;;;5040438;28;1969;-69
2024/02/24 07:27:34;;;;;;;;;;;18.00;66.10;;;;;;5037868;28;1936;-71
2024/02/24 07:30:00;;;;;;;;;;;18.00;66.00;;;;;;5039788;28;1580;-69
2024/02/24 07:32:25;;;;;;;;;;;18.00;66.10;;;;;;5039923;28;1342;-68
2024/02/24 07:34:51;;;;;;;;;;;17.90;66.10;;;;;;5039944;28;1551;-69
2024/02/24 07:37:16;;;;;;;;;;;17.90;66.10;;;;;;5041087;28;1677;-70
2024/02/24 07:39:43;;;;;;;;;;;17.90;66.20;;;;;;5043295;28;1398;-69
2024/02/24 07:42:09;;;;;;;;;;;17.90;66.20;;;;;;5074825;28;1591;-69
2024/02/24 07:44:34;;;;;;;;;;;18.00;66.20;;;;;;5037377;28;2295;-70
2024/02/24 07:47:00;;;;;;;;;;;17.90;66.20;;;;;;5040759;28;1431;-70
2024/02/24 07:49:26;;;;;;;;;;;17.90;66.30;;;;;;5041565;28;1360;-70
2024/02/24 07:51:51;;;;;;;;;;;17.90;66.30;;;;;;5039105;28;1404;-69
2024/02/24 07:54:17;;;;;;;;;;;17.90;66.30;;;;;;5045493;28;1282;-71
2024/02/24 07:56:42;;;;;;;;;;;17.90;66.30;;;;;;5038278;28;1126;-70
2024/02/24 07:59:08;;;;;;;;;;;17.90;66.30;;;;;;5034022;28;1860;-70
2024/02/24 08:01:33;;;;;;;;;;;17.90;66.40;;;;;;5037437;28;1790;-71
2024/02/24 08:03:59;;;;;;;;;;;17.90;66.40;;;;;;5038888;28;1905;-71
2024/02/24 08:06:24;;;;;;;;;;;17.90;66.40;;;;;;5038352;28;1965;-71
2024/02/24 08:08:50;;;;;;;;;;;17.90;66.40;;;;;;5038617;28;1341;-71
2024/02/24 08:11:15;;;;;;;;;;;17.90;66.40;;;;;;5039075;28;1551;-71
2024/02/24 08:13:44;;;;;;;;;;;17.80;66.40;;;;;;5037654;28;1178;-71
2024/02/24 08:16:09;;;;;;;;;;;17.80;66.40;;;;;;5038931;28;1404;-71
2024/02/24 08:18:35;;;;;;;;;;;17.80;66.40;;;;;;5036869;28;1561;-71
2024/02/24 08:21:07;;;;;;;;;;;17.80;66.50;;;;;;5045830;28;1292;-71
2024/02/24 08:23:36;;;;;;;;;;;17.90;66.70;;;;;;5070556;28;1332;-71
2024/02/24 08:26:01;;;;;;;;;;;17.80;66.50;;;;;;5038293;28;1890;-71
2024/02/24 08:28:27;;;;;;;;;;;17.80;66.50;;;;;;5039423;28;1335;-70
2024/02/24 08:30:52;;;;;;;;;;;17.90;66.50;;;;;;5038408;28;1301;-70
2024/02/24 08:33:22;;;;;;;;;;;17.90;66.50;;;;;;5036936;28;1426;-71
2024/02/24 08:35:51;;;;;;;;;;;17.80;66.40;;;;;;5039078;28;1182;-71
2024/02/24 08:38:17;;;;;;;;;;;17.90;66.50;;;;;;5042948;28;1588;-71
2024/02/24 08:40:42;;;;;;;;;;;17.90;66.50;;;;;;5040509;28;1277;-71
2024/02/24 08:43:08;;;;;;;;;;;17.90;66.50;;;;;;5043457;28;1452;-71
2024/02/24 08:45:33;;;;;;;;;;;17.90;66.50;;;;;;5044197;28;1899;-71
2024/02/24 08:47:59;;;;;;;;;;;17.90;66.50;;;;;;5040321;28;1566;-68
2024/02/24 08:50:24;;;;;;;;;;;17.90;66.40;;;;;;5041516;28;1641;-72
2024/02/24 08:52:50;;;;;;;;;;;17.90;66.40;;;;;;5043338;28;1501;-71
2024/02/24 08:55:15;;;;;;;;;;;17.90;66.40;;;;;;5040753;28;1287;-69
2024/02/24 08:57:41;;;;;;;;;;;17.90;66.40;;;;;;5039472;28;1222;-69
2024/02/24 09:00:08;;;;;;;;;;;17.90;66.30;;;;;;5044120;28;1358;-69
2024/02/24 09:02:33;;;;;;;;;;;17.90;66.30;;;;;;5042335;28;1220;-69
2024/02/24 09:04:59;;;;;;;;;;;17.90;66.20;;;;;;5042068;28;1987;-69
2024/02/24 09:07:24;;;;;;;;;;;17.90;66.20;;;;;;5045483;28;1133;-69
2024/02/24 09:09:50;;;;;;;;;;;17.90;66.90;;;;;;5041515;28;931;-69
2024/02/24 09:12:16;;;;;;;;;;;17.90;66.10;;;;;;5041386;28;1166;-69
2024/02/24 09:14:41;;;;;;;;;;;17.90;66.10;;;;;;5040955;28;1289;-69
2024/02/24 09:17:07;;;;;;;;;;;17.90;66.10;;;;;;5042919;28;1138;-69
2024/02/24 09:19:32;;;;;;;;;;;18.00;66.10;;;;;;5041226;28;1431;-69
2024/02/24 09:21:58;;;;;;;;;;;18.00;66.10;;;;;;5044297;28;1754;-71
2024/02/24 09:24:24;;;;;;;;;;;18.00;66.10;;;;;;5040528;28;1549;-70
2024/02/24 09:26:49;;;;;;;;;;;18.00;66.00;;;;;;5042613;28;1894;-68
2024/02/24 09:29:15;;;;;;;;;;;18.00;66.00;;;;;;5045070;28;1378;-69
2024/02/24 09:31:40;;;;;;;;;;;18.00;66.00;;;;;;5044543;28;1780;-69
2024/02/24 09:34:06;;;;;;;;;;;18.00;65.90;;;;;;5043522;28;1308;-68
2024/02/24 09:36:31;;;;;;;;;;;18.00;65.90;;;;;;5074697;28;1219;-69
2024/02/24 09:38:57;;;;;;;;;;;18.00;65.90;;;;;;5041465;28;1544;-68
2024/02/24 09:41:23;;;;;;;;;;;18.00;65.90;;;;;;5037351;28;1710;-69
2024/02/24 09:43:48;;;;;;;;;;;18.00;66.00;;;;;;5042829;28;1266;-68
2024/02/24 09:46:14;;;;;;;;;;;18.00;66.00;;;;;;5037818;28;1969;-68
2024/02/24 09:48:41;;;;;;;;;;;18.00;66.00;;;;;;5042905;28;1404;-68
2024/02/24 09:51:07;;;;;;;;;;;18.00;65.90;;;;;;5043516;28;1510;-69
2024/02/24 09:53:33;;;;;;;;;;;18.10;66.00;;;;;;5042261;28;1276;-68
2024/02/24 09:55:58;;;;;;;;;;;18.00;65.90;;;;;;5040413;28;1535;-72
2024/02/24 09:58:24;;;;;;;;;;;18.10;66.00;;;;;;5037405;28;1602;-68
2024/02/24 10:00:52;;;;;;;;;;;18.10;65.90;;;;;;5041341;28;1372;-68
2024/02/24 10:03:25;;;;;;;;;;;18.10;65.90;;;;;;5041868;28;1249;-69
2024/02/24 10:05:50;;;;;;;;;;;18.10;65.90;;;;;;5042008;28;1961;-68
2024/02/24 10:08:16;;;;;;;;;;;18.10;65.80;;;;;;5041018;28;1748;-68
2024/02/24 10:10:41;;;;;;;;;;;18.10;65.80;;;;;;5039277;28;1752;-71
2024/02/24 10:13:06;;;;;;;;;;;18.10;65.80;;;;;;5039400;28;1515;-68
2024/02/24 10:15:34;;;;;;;;;;;18.10;65.70;;;;;;5040389;28;1276;-68
2024/02/24 10:17:59;;;;;;;;;;;18.10;65.70;;;;;;5038903;28;1268;-72
2024/02/24 10:20:25;;;;;;;;;;;18.10;65.70;;;;;;5040369;28;1457;-68
2024/02/24 10:22:50;;;;;;;;;;;18.10;65.70;;;;;;5041084;28;1499;-68
2024/02/24 10:25:16;;;;;;;;;;;18.20;65.70;;;;;;5039146;28;1887;-69
2024/02/24 10:27:42;;;;;;;;;;;18.20;65.70;;;;;;5047938;28;1187;-69
2024/02/24 10:30:08;;;;;;;;;;;18.20;65.70;;;;;;5036375;28;1342;-70
2024/02/24 10:32:33;;;;;;;;;;;18.20;65.70;;;;;;5039236;28;1376;-70
2024/02/24 10:34:59;;;;;;;;;;;18.20;65.70;;;;;;5041458;28;1587;-70
2024/02/24 10:37:25;;;;;;;;;;;18.20;65.70;;;;;;5041484;28;1293;-70
2024/02/24 10:39:51;;;;;;;;;;;18.20;65.70;;;;;;5039744;28;1323;-70
2024/02/24 10:42:17;;;;;;;;;;;18.10;65.60;;;;;;5077417;28;1572;-70
2024/02/24 10:44:42;;;;;;;;;;;18.20;65.70;;;;;;5040024;28;1952;-69
2024/02/24 10:47:07;;;;;;;;;;;18.10;65.60;;;;;;5038987;28;1369;-69
2024/02/24 10:49:33;;;;;;;;;;;18.10;65.60;;;;;;5035217;28;1447;-69
2024/02/24 10:51:58;;;;;;;;;;;18.10;65.60;;;;;;5037971;28;1187;-70
2024/02/24 10:54:29;;;;;;;;;;;18.10;65.70;;;;;;5040508;28;1838;-70
2024/02/24 10:56:58;;;;;;;;;;;18.10;65.70;;;;;;5040820;28;1372;-70
2024/02/24 10:59:28;;;;;;;;;;;18.10;65.70;;;;;;5039754;28;1899;-70
2024/02/24 11:01:56;;;;;;;;;;;18.10;65.70;;;;;;5047306;28;1593;-70
2024/02/24 11:04:21;;;;;;;;;;;18.10;65.70;;;;;;5038386;28;1745;-70
2024/02/24 11:06:50;;;;;;;;;;;18.10;65.70;;;;;;5037673;28;1902;-70
2024/02/24 11:09:19;;;;;;;;;;;18.10;65.70;;;;;;5040464;28;1328;-70
2024/02/24 11:11:46;;;;;;;;;;;18.10;65.80;;;;;;5038834;28;1700;-70
2024/02/24 11:14:12;;;;;;;;;;;18.10;65.80;;;;;;5041244;28;1338;-70
2024/02/24 11:16:38;;;;;;;;;;;18.10;66.50;;;;;;5035803;28;1509;-69
2024/02/24 11:19:10;;;;;;;;;;;18.10;65.80;;;;;;5039838;28;1376;-70
2024/02/24 11:21:54;;;;;;;;;;;18.10;65.70;;;;;;5039278;28;1650;-70
2024/02/24 11:24:20;;;;;;;;;;;18.10;65.80;;;;;;5041503;28;1397;-69
2024/02/24 11:26:45;;;;;;;;;;;18.10;65.80;;;;;;5037181;28;1894;-70
2024/02/24 11:29:15;;;;;;;;;;;18.10;65.80;;;;;;5040685;28;1395;-70
2024/02/24 11:31:41;;;;;;;;;;;18.10;65.80;;;;;;5040719;28;1321;-70
2024/02/24 11:34:08;;;;;;;;;;;18.10;65.80;;;;;;5043755;28;1637;-70
2024/02/24 11:36:34;;;;;;;;;;;18.10;65.90;;;;;;5039350;28;1255;-70
2024/02/24 11:38:59;;;;;;;;;;;18.10;65.80;;;;;;5037013;28;1421;-70
2024/02/24 11:41:26;;;;;;;;;;;18.10;65.80;;;;;;5036316;28;1584;-70
2024/02/24 11:43:52;;;;;;;;;;;18.10;65.80;;;;;;5038698;28;1519;-69
2024/02/24 11:46:18;;;;;;;;;;;18.10;65.80;;;;;;5039005;28;1922;-70
2024/02/24 11:48:43;;;;;;;;;;;18.10;65.90;;;;;;5041554;28;1905;-69
2024/02/24 11:51:09;;;;;;;;;;;18.10;65.90;;;;;;5041124;28;1374;-70
2024/02/24 11:53:34;;;;;;;;;;;18.10;65.90;;;;;;5036898;28;1134;-70
2024/02/24 11:55:59;;;;;;;;;;;18.10;65.90;;;;;;5039789;28;1934;-70
2024/02/24 11:58:25;;;;;;;;;;;18.10;65.90;;;;;;5038131;28;1762;-69
2024/02/24 12:00:50;;;;;;;;;;;18.10;65.90;;;;;;5035125;28;1578;-69
2024/02/24 12:03:16;;;;;;;;;;;18.00;65.90;;;;;;5022437;28;1891;-70
2024/02/24 12:05:42;;;;;;;;;;;18.00;65.90;;;;;;5039560;28;1906;-69
2024/02/24 12:08:14;;;;;;;;;;;18.10;66.00;;;;;;5038923;28;1323;-68
2024/02/24 12:10:40;;;;;;;;;;;18.00;66.00;;;;;;5037132;28;1268;-69
2024/02/24 12:13:06;;;;;;;;;;;18.00;66.00;;;;;;5036282;28;1125;-67
2024/02/24 12:15:35;;;;;;;;;;;18.00;66.00;;;;;;5039848;28;1520;-69
2024/02/24 12:18:01;;;;;;;;;;;18.00;66.00;;;;;;5036528;28;1573;-69
2024/02/24 12:20:26;;;;;;;;;;;18.00;66.10;;;;;;5049826;28;1221;-69
2024/02/24 12:22:52;;;;;;;;;;;18.00;66.10;;;;;;5039101;28;1456;-70
2024/02/24 12:25:20;;;;;;;;;;;18.00;66.10;;;;;;5037632;28;1887;-69
2024/02/24 12:27:47;;;;;;;;;;;18.00;66.10;;;;;;5037636;28;1479;-69
2024/02/24 12:30:13;;;;;;;;;;;18.00;66.10;;;;;;5036681;28;1485;-70
2024/02/24 12:32:38;;;;;;;;;;;18.00;66.10;;;;;;5045259;28;1565;-69
2024/02/24 12:35:05;;;;;;;;;;;18.00;66.10;;;;;;5038142;28;1487;-69
2024/02/24 12:37:32;;;;;;;;;;;18.00;66.10;;;;;;5036980;28;1599;-70
2024/02/24 12:39:57;;;;;;;;;;;18.00;66.10;;;;;;5037645;28;1638;-70
2024/02/24 12:42:25;;;;;;;;;;;18.00;66.10;;;;;;5039317;28;1510;-70
2024/02/24 12:44:51;;;;;;;;;;;18.00;66.10;;;;;;5036418;28;1898;-70
2024/02/24 12:47:16;;;;;;;;;;;18.00;66.10;;;;;;5043214;28;1729;-70
2024/02/24 12:49:42;;;;;;;;;;;18.00;66.00;;;;;;5041684;28;1548;-71
2024/02/24 12:52:07;;;;;;;;;;;18.00;66.10;;;;;;5041392;28;1280;-70
2024/02/24 12:54:33;;;;;;;;;;;18.00;66.10;;;;;;5039690;28;1327;-72
2024/02/24 12:56:58;;;;;;;;;;;18.00;66.10;;;;;;5034383;28;1041;-73
2024/02/24 12:59:24;;;;;;;;;;;18.00;66.00;;;;;;5041275;28;1593;-71
2024/02/24 13:01:49;;;;;;;;;;;18.00;66.00;;;;;;5040257;28;1551;-72
2024/02/24 13:04:15;;;;;;;;;;;18.00;66.10;;;;;;5040758;28;1450;-72
2024/02/24 13:06:40;;;;;;;;;;;18.00;66.10;;;;;;5038575;28;1906;-72
2024/02/24 13:09:06;;;;;;;;;;;18.00;66.10;;;;;;5038676;28;1632;-71
2024/02/24 13:11:31;;;;;;;;;;;18.00;66.10;;;;;;5039466;28;1286;-73
2024/02/24 13:13:57;;;;;;;;;;;18.00;66.10;;;;;;5038386;28;1187;-72
2024/02/24 13:16:22;;;;;;;;;;;18.00;66.10;;;;;;5047358;28;1452;-72
2024/02/24 13:18:48;;;;;;;;;;;18.00;66.20;;;;;;5038796;28;1264;-72
2024/02/24 13:21:14;;;;;;;;;;;18.00;66.20;;;;;;5038618;28;1574;-71
2024/02/24 13:23:39;;;;;;;;;;;18.00;66.20;;;;;;5040226;28;1443;-71
2024/02/24 13:26:04;;;;;;;;;;;18.00;66.20;;;;;;5041636;28;1894;-70
2024/02/24 13:28:30;;;;;;;;;;;18.00;66.20;;;;;;5042754;28;1539;-72
2024/02/24 13:30:55;;;;;;;;;;;18.00;66.20;;;;;;5040269;28;1392;-72
2024/02/24 13:33:21;;;;;;;;;;;17.90;66.20;;;;;;5041010;28;1264;-72
2024/02/24 13:35:46;;;;;;;;;;;17.90;66.30;;;;;;5040472;28;1598;-72
2024/02/24 13:38:12;;;;;;;;;;;17.90;66.30;;;;;;5042311;28;1489;-72
2024/02/24 13:40:37;;;;;;;;;;;17.90;66.30;;;;;;5043908;28;1532;-72
2024/02/24 13:43:03;;;;;;;;;;;17.90;66.40;;;;;;5044526;28;1332;-71
2024/02/24 13:45:28;;;;;;;;;;;17.90;66.40;;;;;;5044980;28;1930;-70
2024/02/24 13:47:54;;;;;;;;;;;17.90;66.40;;;;;;5043104;28;1459;-70
2024/02/24 13:50:22;;;;;;;;;;;17.90;66.40;;;;;;5039419;28;1615;-70
2024/02/24 13:52:47;;;;;;;;;;;17.90;66.50;;;;;;5040338;28;1580;-69
2024/02/24 13:55:13;;;;;;;;;;;17.90;66.50;;;;;;5040493;28;1356;-71
2024/02/24 13:57:38;;;;;;;;;;;17.90;66.50;;;;;;5042641;28;1391;-70
2024/02/24 14:00:10;;;;;;;;;;;17.90;66.50;;;;;;5039829;28;1653;-71
2024/02/24 14:02:36;;;;;;;;;;;17.90;66.50;;;;;;5040766;28;1647;-69
2024/02/24 14:05:01;;;;;;;;;;;17.90;66.50;;;;;;5036792;28;1991;-70
2024/02/24 14:07:26;;;;;;;;;;;17.90;66.60;;;;;;5049835;28;1642;-70
2024/02/24 14:09:52;;;;;;;;;;;17.90;66.60;;;;;;5039702;28;1458;-69
2024/02/24 14:12:17;;;;;;;;;;;17.90;66.60;;;;;;5039312;28;1336;-70
2024/02/24 14:14:43;;;;;;;;;;;17.80;66.60;;;;;;5054977;28;1343;-70
2024/02/24 14:17:08;;;;;;;;;;;17.80;66.60;;;;;;5038753;28;1470;-70
2024/02/24 14:19:34;;;;;;;;;;;17.90;66.70;;;;;;5072030;28;1493;-69
2024/02/24 14:22:00;;;;;;;;;;;17.80;66.70;;;;;;5049305;28;1356;-69